sensor_id;sensor_type;location;lat;lon;timestamp;temperature;humidity
47791;DHT22;33547;49.044;1.156;2023-03-01T00:00:27;-0.10;87.90
47791;DHT22;33547;49.044;1.156;2023-03-01T00:02:53;-0.20;87.90
47791;DHT22;33547;49.044;1.156;2023-03-01T00:05:19;-0.20;88.00
47791;DHT22;33547;49.044;1.156;2023-03-01T00:07:44;-0.20;88.50
47791;DHT22;33547;49.044;1.156;2023-03-01T00:10:10;-0.20;88.10
47791;DHT22;33547;49.044;1.156;2023-03-01T00:12:36;-0.10;88.10
47791;DHT22;33547;49.044;1.156;2023-03-01T00:15:02;-0.20;88.70
47791;DHT22;33547;49.044;1.156;2023-03-01T00:17:30;-0.20;88.60
47791;DHT22;33547;49.044;1.156;2023-03-01T00:19:55;-0.30;88.50
47791;DHT22;33547;49.044;1.156;2023-03-01T00:22:21;-0.20;89.10
47791;DHT22;33547;49.044;1.156;2023-03-01T00:24:46;-0.20;89.20
47791;DHT22;33547;49.044;1.156;2023-03-01T00:27:12;-0.20;88.70
47791;DHT22;33547;49.044;1.156;2023-03-01T00:29:38;-0.20;89.00
47791;DHT22;33547;49.044;1.156;2023-03-01T00:32:03;-0.20;88.80
47791;DHT22;33547;49.044;1.156;2023-03-01T00:34:29;-0.20;89.60
47791;DHT22;33547;49.044;1.156;2023-03-01T00:36:55;-0.20;89.00
47791;DHT22;33547;49.044;1.156;2023-03-01T00:39:20;-0.10;88.90
47791;DHT22;33547;49.044;1.156;2023-03-01T00:41:46;-0.20;89.40
47791;DHT22;33547;49.044;1.156;2023-03-01T00:44:11;-0.20;88.90
47791;DHT22;33547;49.044;1.156;2023-03-01T00:46:38;-0.10;88.70
47791;DHT22;33547;49.044;1.156;2023-03-01T00:49:04;-0.20;88.70
47791;DHT22;33547;49.044;1.156;2023-03-01T00:51:30;-0.10;89.10
47791;DHT22;33547;49.044;1.156;2023-03-01T00:53:58;-0.10;88.70
47791;DHT22;33547;49.044;1.156;2023-03-01T00:56:25;-0.10;88.70
47791;DHT22;33547;49.044;1.156;2023-03-01T00:58:51;0.00;89.00
47791;DHT22;33547;49.044;1.156;2023-03-01T01:01:20;-0.20;89.40
47791;DHT22;33547;49.044;1.156;2023-03-01T01:04:04;-0.20;89.60
47791;DHT22;33547;49.044;1.156;2023-03-01T01:06:39;-0.20;89.40
47791;DHT22;33547;49.044;1.156;2023-03-01T01:09:08;-0.20;89.50
47791;DHT22;33547;49.044;1.156;2023-03-01T01:11:34;-0.10;89.20
47791;DHT22;33547;49.044;1.156;2023-03-01T01:14:03;-0.20;89.20
47791;DHT22;33547;49.044;1.156;2023-03-01T01:16:29;-0.10;89.40
47791;DHT22;33547;49.044;1.156;2023-03-01T01:18:56;-0.10;89.20
47791;DHT22;33547;49.044;1.156;2023-03-01T01:21:23;-0.10;89.20
47791;DHT22;33547;49.044;1.156;2023-03-01T01:23:50;-0.10;89.00
47791;DHT22;33547;49.044;1.156;2023-03-01T01:26:24;-0.10;89.40
47791;DHT22;33547;49.044;1.156;2023-03-01T01:28:50;-0.10;89.40
47791;DHT22;33547;49.044;1.156;2023-03-01T01:31:17;0.00;89.60
47791;DHT22;33547;49.044;1.156;2023-03-01T01:33:44;-0.10;89.50
47791;DHT22;33547;49.044;1.156;2023-03-01T01:36:10;-0.20;89.70
47791;DHT22;33547;49.044;1.156;2023-03-01T01:38:36;-0.30;89.70
47791;DHT22;33547;49.044;1.156;2023-03-01T01:41:03;-0.30;89.80
47791;DHT22;33547;49.044;1.156;2023-03-01T01:43:33;-0.30;90.10
47791;DHT22;33547;49.044;1.156;2023-03-01T01:46:02;-0.30;90.20
47791;DHT22;33547;49.044;1.156;2023-03-01T01:48:37;-0.30;90.20
47791;DHT22;33547;49.044;1.156;2023-03-01T01:51:09;-0.40;90.50
47791;DHT22;33547;49.044;1.156;2023-03-01T01:53:37;-0.40;90.40
47791;DHT22;33547;49.044;1.156;2023-03-01T01:56:06;-0.40;90.40
47791;DHT22;33547;49.044;1.156;2023-03-01T01:58:33;-0.40;90.50
47791;DHT22;33547;49.044;1.156;2023-03-01T02:00:59;-0.40;90.60
47791;DHT22;33547;49.044;1.156;2023-03-01T02:03:29;-0.40;90.70
47791;DHT22;33547;49.044;1.156;2023-03-01T02:06:17;-0.40;90.80
47791;DHT22;33547;49.044;1.156;2023-03-01T02:08:44;-0.40;90.60
47791;DHT22;33547;49.044;1.156;2023-03-01T02:11:12;-0.30;90.60
47791;DHT22;33547;49.044;1.156;2023-03-01T02:13:40;-0.30;90.60
47791;DHT22;33547;49.044;1.156;2023-03-01T02:16:11;-0.30;90.70
47791;DHT22;33547;49.044;1.156;2023-03-01T02:18:38;-0.30;90.60
47791;DHT22;33547;49.044;1.156;2023-03-01T02:23:48;-0.30;90.60
47791;DHT22;33547;49.044;1.156;2023-03-01T02:28:46;-0.30;90.80
47791;DHT22;33547;49.044;1.156;2023-03-01T02:31:17;-0.30;90.70
47791;DHT22;33547;49.044;1.156;2023-03-01T02:34:03;-0.30;90.90
47791;DHT22;33547;49.044;1.156;2023-03-01T02:36:48;-0.40;90.80
47791;DHT22;33547;49.044;1.156;2023-03-01T02:39:22;-0.40;91.00
47791;DHT22;33547;49.044;1.156;2023-03-01T02:41:52;-0.30;90.70
47791;DHT22;33547;49.044;1.156;2023-03-01T02:44:18;-0.40;91.10
47791;DHT22;33547;49.044;1.156;2023-03-01T02:46:54;-0.40;91.10
47791;DHT22;33547;49.044;1.156;2023-03-01T02:49:29;-0.40;91.00
47791;DHT22;33547;49.044;1.156;2023-03-01T02:57:21;-0.50;91.30
47791;DHT22;33547;49.044;1.156;2023-03-01T02:59:48;-0.60;91.60
47791;DHT22;33547;49.044;1.156;2023-03-01T03:02:23;-0.70;91.70
47791;DHT22;33547;49.044;1.156;2023-03-01T03:07:28;-0.80;92.00
47791;DHT22;33547;49.044;1.156;2023-03-01T03:09:54;-0.70;92.20
47791;DHT22;33547;49.044;1.156;2023-03-01T03:12:19;-1.00;92.00
47791;DHT22;33547;49.044;1.156;2023-03-01T03:14:45;-1.00;92.30
47791;DHT22;33547;49.044;1.156;2023-03-01T03:17:11;-1.00;92.60
47791;DHT22;33547;49.044;1.156;2023-03-01T03:19:36;-1.10;92.60
47791;DHT22;33547;49.044;1.156;2023-03-01T03:22:02;-1.10;92.90
47791;DHT22;33547;49.044;1.156;2023-03-01T03:24:27;-1.20;93.10
47791;DHT22;33547;49.044;1.156;2023-03-01T03:26:54;-1.30;92.90
47791;DHT22;33547;49.044;1.156;2023-03-01T03:29:19;-1.30;93.20
47791;DHT22;33547;49.044;1.156;2023-03-01T03:31:45;-1.40;93.40
47791;DHT22;33547;49.044;1.156;2023-03-01T03:34:10;-1.30;93.20
47791;DHT22;33547;49.044;1.156;2023-03-01T03:36:43;-1.30;93.30
47791;DHT22;33547;49.044;1.156;2023-03-01T03:39:08;-1.40;93.40
47791;DHT22;33547;49.044;1.156;2023-03-01T03:41:35;-1.40;93.30
47791;DHT22;33547;49.044;1.156;2023-03-01T03:44:01;-1.30;93.60
47791;DHT22;33547;49.044;1.156;2023-03-01T03:46:26;-1.30;93.40
47791;DHT22;33547;49.044;1.156;2023-03-01T03:48:52;-1.40;93.70
47791;DHT22;33547;49.044;1.156;2023-03-01T03:51:18;-1.50;93.90
47791;DHT22;33547;49.044;1.156;2023-03-01T03:53:45;-1.40;93.90
47791;DHT22;33547;49.044;1.156;2023-03-01T03:56:11;-1.50;93.90
47791;DHT22;33547;49.044;1.156;2023-03-01T03:58:37;-1.60;94.10
47791;DHT22;33547;49.044;1.156;2023-03-01T04:01:03;-1.60;94.20
47791;DHT22;33547;49.044;1.156;2023-03-01T04:03:30;-1.60;94.30
47791;DHT22;33547;49.044;1.156;2023-03-01T04:05:58;-1.60;94.50
47791;DHT22;33547;49.044;1.156;2023-03-01T04:08:24;-1.80;94.60
47791;DHT22;33547;49.044;1.156;2023-03-01T04:10:52;-1.70;95.20
47791;DHT22;33547;49.044;1.156;2023-03-01T04:13:20;-1.70;94.80
47791;DHT22;33547;49.044;1.156;2023-03-01T04:15:49;-1.80;94.80
47791;DHT22;33547;49.044;1.156;2023-03-01T04:18:15;-1.90;94.90
47791;DHT22;33547;49.044;1.156;2023-03-01T04:20:42;-1.90;95.30
47791;DHT22;33547;49.044;1.156;2023-03-01T04:23:16;-1.90;95.30
47791;DHT22;33547;49.044;1.156;2023-03-01T04:25:50;-1.70;95.50
47791;DHT22;33547;49.044;1.156;2023-03-01T04:30:51;-1.80;95.60
47791;DHT22;33547;49.044;1.156;2023-03-01T04:33:17;-1.80;95.60
47791;DHT22;33547;49.044;1.156;2023-03-01T04:35:43;-1.90;95.80
47791;DHT22;33547;49.044;1.156;2023-03-01T04:38:09;-1.90;95.90
47791;DHT22;33547;49.044;1.156;2023-03-01T04:40:35;-2.00;96.00
47791;DHT22;33547;49.044;1.156;2023-03-01T04:43:01;-1.90;95.70
47791;DHT22;33547;49.044;1.156;2023-03-01T04:45:27;-1.90;96.10
47791;DHT22;33547;49.044;1.156;2023-03-01T04:47:53;-2.00;96.20
47791;DHT22;33547;49.044;1.156;2023-03-01T04:50:19;-1.90;96.30
47791;DHT22;33547;49.044;1.156;2023-03-01T04:52:49;-2.10;96.30
47791;DHT22;33547;49.044;1.156;2023-03-01T04:55:15;-2.10;96.50
47791;DHT22;33547;49.044;1.156;2023-03-01T04:57:41;-2.00;96.50
47791;DHT22;33547;49.044;1.156;2023-03-01T05:00:09;-2.00;96.70
47791;DHT22;33547;49.044;1.156;2023-03-01T05:02:54;-2.00;96.50
47791;DHT22;33547;49.044;1.156;2023-03-01T05:05:29;-2.10;96.60
47791;DHT22;33547;49.044;1.156;2023-03-01T05:07:57;-2.00;96.90
47791;DHT22;33547;49.044;1.156;2023-03-01T05:10:25;-2.00;96.90
47791;DHT22;33547;49.044;1.156;2023-03-01T05:12:51;-2.00;96.50
47791;DHT22;33547;49.044;1.156;2023-03-01T05:15:17;-2.00;96.90
47791;DHT22;33547;49.044;1.156;2023-03-01T05:17:43;-2.00;97.10
47791;DHT22;33547;49.044;1.156;2023-03-01T05:20:10;-2.10;97.30
47791;DHT22;33547;49.044;1.156;2023-03-01T05:22:35;-2.00;97.40
47791;DHT22;33547;49.044;1.156;2023-03-01T05:25:02;-2.00;96.80
47791;DHT22;33547;49.044;1.156;2023-03-01T05:27:28;-2.00;97.10
47791;DHT22;33547;49.044;1.156;2023-03-01T05:29:55;-2.10;97.20
47791;DHT22;33547;49.044;1.156;2023-03-01T05:32:21;-2.00;97.30
47791;DHT22;33547;49.044;1.156;2023-03-01T05:34:46;-2.10;97.70
47791;DHT22;33547;49.044;1.156;2023-03-01T05:37:12;-2.20;97.50
47791;DHT22;33547;49.044;1.156;2023-03-01T05:39:39;-2.20;97.80
47791;DHT22;33547;49.044;1.156;2023-03-01T05:42:05;-2.20;97.80
47791;DHT22;33547;49.044;1.156;2023-03-01T05:44:30;-2.20;97.70
47791;DHT22;33547;49.044;1.156;2023-03-01T05:46:56;-2.30;97.80
47791;DHT22;33547;49.044;1.156;2023-03-01T05:49:22;-2.20;98.10
47791;DHT22;33547;49.044;1.156;2023-03-01T05:51:52;-2.30;98.10
47791;DHT22;33547;49.044;1.156;2023-03-01T05:54:20;-2.40;98.80
47791;DHT22;33547;49.044;1.156;2023-03-01T05:56:46;-2.30;98.50
47791;DHT22;33547;49.044;1.156;2023-03-01T05:59:12;-2.30;98.40
47791;DHT22;33547;49.044;1.156;2023-03-01T06:01:39;-2.50;98.80
47791;DHT22;33547;49.044;1.156;2023-03-01T06:04:05;-2.30;98.90
47791;DHT22;33547;49.044;1.156;2023-03-01T06:06:34;-2.40;99.10
47791;DHT22;33547;49.044;1.156;2023-03-01T06:09:03;-2.40;99.00
47791;DHT22;33547;49.044;1.156;2023-03-01T06:11:28;-2.30;99.00
47791;DHT22;33547;49.044;1.156;2023-03-01T06:13:54;-2.40;98.70
47791;DHT22;33547;49.044;1.156;2023-03-01T06:16:20;-2.40;98.80
47791;DHT22;33547;49.044;1.156;2023-03-01T06:18:45;-2.40;99.00
47791;DHT22;33547;49.044;1.156;2023-03-01T06:21:11;-2.40;99.30
47791;DHT22;33547;49.044;1.156;2023-03-01T06:23:36;-2.40;99.30
47791;DHT22;33547;49.044;1.156;2023-03-01T06:26:06;-2.40;99.50
47791;DHT22;33547;49.044;1.156;2023-03-01T06:28:32;-2.50;99.50
47791;DHT22;33547;49.044;1.156;2023-03-01T06:30:57;-2.50;99.40
47791;DHT22;33547;49.044;1.156;2023-03-01T06:33:23;-2.40;99.40
47791;DHT22;33547;49.044;1.156;2023-03-01T06:35:50;-2.50;99.70
47791;DHT22;33547;49.044;1.156;2023-03-01T06:38:16;-2.50;99.90
47791;DHT22;33547;49.044;1.156;2023-03-01T06:40:44;-2.40;99.90
47791;DHT22;33547;49.044;1.156;2023-03-01T06:43:10;-2.50;99.90
47791;DHT22;33547;49.044;1.156;2023-03-01T06:45:37;-2.40;99.80
47791;DHT22;33547;49.044;1.156;2023-03-01T06:48:06;-2.40;99.90
47791;DHT22;33547;49.044;1.156;2023-03-01T06:50:33;-2.40;99.90
47791;DHT22;33547;49.044;1.156;2023-03-01T06:52:59;-2.40;99.90
47791;DHT22;33547;49.044;1.156;2023-03-01T06:55:25;-2.30;99.90
47791;DHT22;33547;49.044;1.156;2023-03-01T06:57:55;-2.30;99.90
47791;DHT22;33547;49.044;1.156;2023-03-01T07:00:22;-2.30;99.90
47791;DHT22;33547;49.044;1.156;2023-03-01T07:02:48;-2.20;99.90
47791;DHT22;33547;49.044;1.156;2023-03-01T07:05:13;-2.20;99.90
47791;DHT22;33547;49.044;1.156;2023-03-01T07:07:39;-2.20;99.90
47791;DHT22;33547;49.044;1.156;2023-03-01T07:10:05;-2.20;99.90
47791;DHT22;33547;49.044;1.156;2023-03-01T07:12:31;-2.20;99.90
47791;DHT22;33547;49.044;1.156;2023-03-01T07:14:57;-2.20;99.90
47791;DHT22;33547;49.044;1.156;2023-03-01T07:17:22;-1.50;99.90
47791;DHT22;33547;49.044;1.156;2023-03-01T07:19:48;-0.80;98.90
47791;DHT22;33547;49.044;1.156;2023-03-01T07:22:14;-0.20;98.20
47791;DHT22;33547;49.044;1.156;2023-03-01T07:24:41;0.30;97.00
47791;DHT22;33547;49.044;1.156;2023-03-01T07:27:06;1.00;96.10
47791;DHT22;33547;49.044;1.156;2023-03-01T07:29:32;1.50;94.90
47791;DHT22;33547;49.044;1.156;2023-03-01T07:31:58;2.10;94.80
47791;DHT22;33547;49.044;1.156;2023-03-01T07:34:23;2.20;94.00
47791;DHT22;33547;49.044;1.156;2023-03-01T07:36:49;2.40;93.80
47791;DHT22;33547;49.044;1.156;2023-03-01T07:39:15;2.60;93.40
47791;DHT22;33547;49.044;1.156;2023-03-01T07:41:40;2.80;93.40
47791;DHT22;33547;49.044;1.156;2023-03-01T07:44:06;2.70;93.10
47791;DHT22;33547;49.044;1.156;2023-03-01T07:46:32;2.70;92.90
47791;DHT22;33547;49.044;1.156;2023-03-01T07:48:58;2.70;92.50
47791;DHT22;33547;49.044;1.156;2023-03-01T07:51:23;2.80;92.90
47791;DHT22;33547;49.044;1.156;2023-03-01T07:53:49;3.10;92.50
47791;DHT22;33547;49.044;1.156;2023-03-01T07:56:16;3.60;91.70
47791;DHT22;33547;49.044;1.156;2023-03-01T07:58:44;3.80;91.20
47791;DHT22;33547;49.044;1.156;2023-03-01T08:01:12;4.40;90.40
47791;DHT22;33547;49.044;1.156;2023-03-01T08:03:39;4.90;89.60
47791;DHT22;33547;49.044;1.156;2023-03-01T08:06:07;5.20;87.80
47791;DHT22;33547;49.044;1.156;2023-03-01T08:08:34;5.40;86.30
47791;DHT22;33547;49.044;1.156;2023-03-01T08:11:01;5.30;86.20
47791;DHT22;33547;49.044;1.156;2023-03-01T08:13:27;5.70;85.00
47791;DHT22;33547;49.044;1.156;2023-03-01T08:15:53;6.30;83.40
47791;DHT22;33547;49.044;1.156;2023-03-01T08:18:20;6.90;81.20
47791;DHT22;33547;49.044;1.156;2023-03-01T08:20:46;7.20;80.20
47791;DHT22;33547;49.044;1.156;2023-03-01T08:23:12;7.80;78.20
47791;DHT22;33547;49.044;1.156;2023-03-01T08:25:38;8.10;75.70
47791;DHT22;33547;49.044;1.156;2023-03-01T08:28:05;7.60;76.20
47791;DHT22;33547;49.044;1.156;2023-03-01T08:30:31;7.40;76.60
47791;DHT22;33547;49.044;1.156;2023-03-01T08:32:56;7.60;76.80
47791;DHT22;33547;49.044;1.156;2023-03-01T08:35:22;7.50;77.10
47791;DHT22;33547;49.044;1.156;2023-03-01T08:37:48;8.20;75.80
47791;DHT22;33547;49.044;1.156;2023-03-01T08:40:14;7.90;74.80
47791;DHT22;33547;49.044;1.156;2023-03-01T08:42:42;7.70;76.00
47791;DHT22;33547;49.044;1.156;2023-03-01T08:45:09;7.30;76.00
47791;DHT22;33547;49.044;1.156;2023-03-01T08:47:35;6.70;77.20
47791;DHT22;33547;49.044;1.156;2023-03-01T08:50:01;7.10;77.90
47791;DHT22;33547;49.044;1.156;2023-03-01T08:52:27;6.70;77.10
47791;DHT22;33547;49.044;1.156;2023-03-01T08:54:53;7.00;77.60
47791;DHT22;33547;49.044;1.156;2023-03-01T08:57:18;7.30;77.40
47791;DHT22;33547;49.044;1.156;2023-03-01T08:59:44;8.00;75.30
47791;DHT22;33547;49.044;1.156;2023-03-01T09:02:12;8.40;73.80
47791;DHT22;33547;49.044;1.156;2023-03-01T09:04:38;9.00;72.80
47791;DHT22;33547;49.044;1.156;2023-03-01T09:07:04;9.70;71.80
47791;DHT22;33547;49.044;1.156;2023-03-01T09:09:29;9.50;70.60
47791;DHT22;33547;49.044;1.156;2023-03-01T09:11:55;9.80;69.50
47791;DHT22;33547;49.044;1.156;2023-03-01T09:14:21;9.40;69.30
47791;DHT22;33547;49.044;1.156;2023-03-01T09:16:46;9.70;69.80
47791;DHT22;33547;49.044;1.156;2023-03-01T09:19:12;10.90;68.00
47791;DHT22;33547;49.044;1.156;2023-03-01T09:21:38;11.40;65.90
47791;DHT22;33547;49.044;1.156;2023-03-01T09:24:04;10.90;63.90
47791;DHT22;33547;49.044;1.156;2023-03-01T09:26:30;10.60;65.20
47791;DHT22;33547;49.044;1.156;2023-03-01T09:28:56;11.70;63.80
47791;DHT22;33547;49.044;1.156;2023-03-01T09:31:23;11.20;64.20
47791;DHT22;33547;49.044;1.156;2023-03-01T09:33:51;11.30;63.70
47791;DHT22;33547;49.044;1.156;2023-03-01T09:36:22;12.00;62.80
47791;DHT22;33547;49.044;1.156;2023-03-01T09:38:49;12.40;61.70
47791;DHT22;33547;49.044;1.156;2023-03-01T09:43:55;12.20;60.90
47791;DHT22;33547;49.044;1.156;2023-03-01T09:46:25;12.90;59.80
47791;DHT22;33547;49.044;1.156;2023-03-01T09:48:56;13.80;57.90
47791;DHT22;33547;49.044;1.156;2023-03-01T09:51:34;13.40;57.30
47791;DHT22;33547;49.044;1.156;2023-03-01T09:54:04;13.50;58.00
47791;DHT22;33547;49.044;1.156;2023-03-01T09:56:37;13.40;57.20
47791;DHT22;33547;49.044;1.156;2023-03-01T10:04:48;13.20;57.50
47791;DHT22;33547;49.044;1.156;2023-03-01T10:07:27;13.60;56.10
47791;DHT22;33547;49.044;1.156;2023-03-01T10:09:56;14.80;55.30
47791;DHT22;33547;49.044;1.156;2023-03-01T10:12:26;14.10;54.40
47791;DHT22;33547;49.044;1.156;2023-03-01T10:15:17;14.20;54.30
47791;DHT22;33547;49.044;1.156;2023-03-01T10:17:50;13.80;53.10
47791;DHT22;33547;49.044;1.156;2023-03-01T10:20:22;13.90;52.20
47791;DHT22;33547;49.044;1.156;2023-03-01T10:22:49;13.30;53.30
47791;DHT22;33547;49.044;1.156;2023-03-01T10:28:29;14.60;51.30
47791;DHT22;33547;49.044;1.156;2023-03-01T10:30:57;13.80;51.50
47791;DHT22;33547;49.044;1.156;2023-03-01T10:33:28;13.20;51.50
47791;DHT22;33547;49.044;1.156;2023-03-01T10:35:55;12.70;52.30
47791;DHT22;33547;49.044;1.156;2023-03-01T10:38:21;12.00;53.90
47791;DHT22;33547;49.044;1.156;2023-03-01T10:43:21;12.10;54.30
47791;DHT22;33547;49.044;1.156;2023-03-01T10:45:47;12.20;53.00
47791;DHT22;33547;49.044;1.156;2023-03-01T10:48:24;12.60;53.20
47791;DHT22;33547;49.044;1.156;2023-03-01T10:51:14;11.60;54.20
47791;DHT22;33547;49.044;1.156;2023-03-01T10:53:48;12.10;53.50
47791;DHT22;33547;49.044;1.156;2023-03-01T10:56:15;11.90;54.10
47791;DHT22;33547;49.044;1.156;2023-03-01T11:01:27;12.50;53.40
47791;DHT22;33547;49.044;1.156;2023-03-01T11:04:13;12.30;53.30
47791;DHT22;33547;49.044;1.156;2023-03-01T11:06:40;12.80;53.70
47791;DHT22;33547;49.044;1.156;2023-03-01T11:09:29;12.40;53.80
47791;DHT22;33547;49.044;1.156;2023-03-01T11:12:00;13.10;52.60
47791;DHT22;33547;49.044;1.156;2023-03-01T11:14:50;13.20;52.20
47791;DHT22;33547;49.044;1.156;2023-03-01T11:17:27;13.40;51.60
47791;DHT22;33547;49.044;1.156;2023-03-01T11:23:24;14.30;51.10
47791;DHT22;33547;49.044;1.156;2023-03-01T11:25:35;14.00;50.20
47791;DHT22;33547;49.044;1.156;2023-03-01T11:28:04;13.70;50.30
47791;DHT22;33547;49.044;1.156;2023-03-01T11:36:16;13.60;50.50
47791;DHT22;33547;49.044;1.156;2023-03-01T11:38:44;13.60;50.50
47791;DHT22;33547;49.044;1.156;2023-03-01T11:41:26;13.20;51.20
47791;DHT22;33547;49.044;1.156;2023-03-01T11:52:36;14.30;50.60
47791;DHT22;33547;49.044;1.156;2023-03-01T11:55:28;13.60;50.90
47791;DHT22;33547;49.044;1.156;2023-03-01T12:00:51;13.30;52.20
47791;DHT22;33547;49.044;1.156;2023-03-01T12:08:42;12.30;54.40
47791;DHT22;33547;49.044;1.156;2023-03-01T12:11:29;12.00;54.10
47791;DHT22;33547;49.044;1.156;2023-03-01T12:14:22;11.50;55.40
47791;DHT22;33547;49.044;1.156;2023-03-01T12:26:00;10.60;57.00
47791;DHT22;33547;49.044;1.156;2023-03-01T12:50:00;9.00;60.00
47791;DHT22;33547;49.044;1.156;2023-03-01T12:52:37;9.00;60.80
47791;DHT22;33547;49.044;1.156;2023-03-01T12:55:18;9.00;60.20
47791;DHT22;33547;49.044;1.156;2023-03-01T12:58:00;9.10;60.00
47791;DHT22;33547;49.044;1.156;2023-03-01T13:06:04;9.00;60.30
47791;DHT22;33547;49.044;1.156;2023-03-01T13:08:50;9.30;61.40
47791;DHT22;33547;49.044;1.156;2023-03-01T13:11:20;9.00;60.00
47791;DHT22;33547;49.044;1.156;2023-03-01T13:13:47;8.90;60.90
47791;DHT22;33547;49.044;1.156;2023-03-01T13:19:13;8.60;61.20
47791;DHT22;33547;49.044;1.156;2023-03-01T13:21:40;8.50;62.30
47791;DHT22;33547;49.044;1.156;2023-03-01T13:24:24;8.40;61.30
47791;DHT22;33547;49.044;1.156;2023-03-01T13:29:46;8.40;61.40
47791;DHT22;33547;49.044;1.156;2023-03-01T13:35:02;8.40;61.90
47791;DHT22;33547;49.044;1.156;2023-03-01T13:37:35;8.40;61.20
47791;DHT22;33547;49.044;1.156;2023-03-01T13:42:55;8.30;61.90
47791;DHT22;33547;49.044;1.156;2023-03-01T13:48:17;8.50;62.30
47791;DHT22;33547;49.044;1.156;2023-03-01T13:50:58;8.30;61.40
47791;DHT22;33547;49.044;1.156;2023-03-01T13:53:36;8.40;62.60
47791;DHT22;33547;49.044;1.156;2023-03-01T13:56:13;8.40;62.20
47791;DHT22;33547;49.044;1.156;2023-03-01T13:58:58;8.40;61.80
47791;DHT22;33547;49.044;1.156;2023-03-01T14:01:33;8.30;61.90
47791;DHT22;33547;49.044;1.156;2023-03-01T14:03:59;8.20;61.10
47791;DHT22;33547;49.044;1.156;2023-03-01T14:06:27;8.10;61.30
47791;DHT22;33547;49.044;1.156;2023-03-01T14:09:26;8.20;61.80
47791;DHT22;33547;49.044;1.156;2023-03-01T14:17:49;8.00;62.50
47791;DHT22;33547;49.044;1.156;2023-03-01T14:20:26;8.20;61.40
47791;DHT22;33547;49.044;1.156;2023-03-01T14:22:55;8.20;60.80
47791;DHT22;33547;49.044;1.156;2023-03-01T14:25:27;8.10;61.50
47791;DHT22;33547;49.044;1.156;2023-03-01T14:30:22;8.00;61.10
47791;DHT22;33547;49.044;1.156;2023-03-01T14:32:57;8.10;60.80
47791;DHT22;33547;49.044;1.156;2023-03-01T14:35:26;8.00;60.50
47791;DHT22;33547;49.044;1.156;2023-03-01T14:37:52;7.90;60.90
47791;DHT22;33547;49.044;1.156;2023-03-01T14:40:31;7.80;61.50
47791;DHT22;33547;49.044;1.156;2023-03-01T14:43:00;7.90;61.60
47791;DHT22;33547;49.044;1.156;2023-03-01T14:45:28;8.10;62.40
47791;DHT22;33547;49.044;1.156;2023-03-01T14:47:55;8.10;61.10
47791;DHT22;33547;49.044;1.156;2023-03-01T14:50:43;8.00;61.70
47791;DHT22;33547;49.044;1.156;2023-03-01T14:53:25;7.90;61.50
47791;DHT22;33547;49.044;1.156;2023-03-01T14:55:53;7.90;61.60
47791;DHT22;33547;49.044;1.156;2023-03-01T14:58:23;7.90;61.80
47791;DHT22;33547;49.044;1.156;2023-03-01T15:00:58;7.90;62.30
47791;DHT22;33547;49.044;1.156;2023-03-01T15:03:34;7.70;62.20
47791;DHT22;33547;49.044;1.156;2023-03-01T15:06:02;7.70;63.90
47791;DHT22;33547;49.044;1.156;2023-03-01T15:08:28;7.90;63.10
47791;DHT22;33547;49.044;1.156;2023-03-01T15:11:02;7.80;62.30
47791;DHT22;33547;49.044;1.156;2023-03-01T15:13:31;7.80;62.10
47791;DHT22;33547;49.044;1.156;2023-03-01T15:16:17;7.90;61.60
47791;DHT22;33547;49.044;1.156;2023-03-01T15:18:55;7.80;61.60
47791;DHT22;33547;49.044;1.156;2023-03-01T15:21:33;7.70;61.90
47791;DHT22;33547;49.044;1.156;2023-03-01T15:24:19;7.70;61.20
47791;DHT22;33547;49.044;1.156;2023-03-01T15:29:22;7.40;62.00
47791;DHT22;33547;49.044;1.156;2023-03-01T15:32:24;7.40;63.10
47791;DHT22;33547;49.044;1.156;2023-03-01T15:34:50;7.40;62.20
47791;DHT22;33547;49.044;1.156;2023-03-01T15:37:40;7.40;62.90
47791;DHT22;33547;49.044;1.156;2023-03-01T15:40:25;7.50;63.10
47791;DHT22;33547;49.044;1.156;2023-03-01T15:43:00;7.30;62.10
47791;DHT22;33547;49.044;1.156;2023-03-01T15:45:28;7.30;62.60
47791;DHT22;33547;49.044;1.156;2023-03-01T15:47:58;7.30;62.60
47791;DHT22;33547;49.044;1.156;2023-03-01T15:50:35;7.40;62.90
47791;DHT22;33547;49.044;1.156;2023-03-01T15:53:11;7.30;62.50
47791;DHT22;33547;49.044;1.156;2023-03-01T15:55:37;7.30;62.70
47791;DHT22;33547;49.044;1.156;2023-03-01T15:58:12;7.30;63.30
47791;DHT22;33547;49.044;1.156;2023-03-01T16:00:38;7.10;63.60
47791;DHT22;33547;49.044;1.156;2023-03-01T16:03:05;7.10;63.70
47791;DHT22;33547;49.044;1.156;2023-03-01T16:05:33;7.10;63.50
47791;DHT22;33547;49.044;1.156;2023-03-01T16:08:00;7.10;64.00
47791;DHT22;33547;49.044;1.156;2023-03-01T16:10:26;7.10;63.40
47791;DHT22;33547;49.044;1.156;2023-03-01T16:12:53;7.10;64.60
47791;DHT22;33547;49.044;1.156;2023-03-01T16:17:50;7.00;65.00
47791;DHT22;33547;49.044;1.156;2023-03-01T16:20:16;7.10;64.60
47791;DHT22;33547;49.044;1.156;2023-03-01T16:22:43;7.00;64.60
47791;DHT22;33547;49.044;1.156;2023-03-01T16:25:19;6.90;64.80
47791;DHT22;33547;49.044;1.156;2023-03-01T16:27:46;6.90;64.50
47791;DHT22;33547;49.044;1.156;2023-03-01T16:30:13;6.90;62.30
47791;DHT22;33547;49.044;1.156;2023-03-01T16:32:40;6.90;62.40
47791;DHT22;33547;49.044;1.156;2023-03-01T16:35:08;6.80;62.90
47791;DHT22;33547;49.044;1.156;2023-03-01T16:37:35;6.80;62.90
47791;DHT22;33547;49.044;1.156;2023-03-01T16:40:03;6.80;63.50
47791;DHT22;33547;49.044;1.156;2023-03-01T16:42:33;6.70;63.90
47791;DHT22;33547;49.044;1.156;2023-03-01T16:44:59;6.60;63.60
47791;DHT22;33547;49.044;1.156;2023-03-01T16:47:25;6.60;63.90
47791;DHT22;33547;49.044;1.156;2023-03-01T16:49:52;6.50;65.50
47791;DHT22;33547;49.044;1.156;2023-03-01T16:52:18;6.40;66.50
47791;DHT22;33547;49.044;1.156;2023-03-01T16:54:44;6.40;66.90
47791;DHT22;33547;49.044;1.156;2023-03-01T16:57:09;6.30;67.30
47791;DHT22;33547;49.044;1.156;2023-03-01T16:59:35;6.30;67.80
47791;DHT22;33547;49.044;1.156;2023-03-01T17:02:03;6.20;67.90
47791;DHT22;33547;49.044;1.156;2023-03-01T17:04:28;6.10;68.50
47791;DHT22;33547;49.044;1.156;2023-03-01T17:06:54;6.10;68.00
47791;DHT22;33547;49.044;1.156;2023-03-01T17:09:19;6.00;68.30
47791;DHT22;33547;49.044;1.156;2023-03-01T17:11:48;6.00;68.90
47791;DHT22;33547;49.044;1.156;2023-03-01T17:14:14;5.90;69.10
47791;DHT22;33547;49.044;1.156;2023-03-01T17:16:42;5.90;69.80
47791;DHT22;33547;49.044;1.156;2023-03-01T17:19:07;5.80;69.60
47791;DHT22;33547;49.044;1.156;2023-03-01T17:21:33;5.80;70.10
47791;DHT22;33547;49.044;1.156;2023-03-01T17:23:59;5.70;70.60
47791;DHT22;33547;49.044;1.156;2023-03-01T17:26:25;5.60;70.90
47791;DHT22;33547;49.044;1.156;2023-03-01T17:28:54;5.60;71.20
47791;DHT22;33547;49.044;1.156;2023-03-01T17:31:20;5.50;71.80
47791;DHT22;33547;49.044;1.156;2023-03-01T17:33:46;5.40;71.70
47791;DHT22;33547;49.044;1.156;2023-03-01T17:36:11;5.30;71.80
47791;DHT22;33547;49.044;1.156;2023-03-01T17:38:37;5.30;71.70
47791;DHT22;33547;49.044;1.156;2023-03-01T17:41:03;5.20;72.00
47791;DHT22;33547;49.044;1.156;2023-03-01T17:43:29;5.20;72.10
47791;DHT22;33547;49.044;1.156;2023-03-01T17:45:56;5.10;71.90
47791;DHT22;33547;49.044;1.156;2023-03-01T17:48:22;5.10;72.20
47791;DHT22;33547;49.044;1.156;2023-03-01T17:50:48;5.00;72.30